Time,TemperatureF,DewpointF,PressureIn,WindDirection,WindDirectionDegrees,WindSpeedMPH,WindSpeedGustMPH,Humidity,HourlyPrecipIn,Conditions,Clouds,dailyrainin,SoftwareType,DateUTC
2013-06-24 00:00:00,74.0,67.8,30.04,WSW,250,0.0,0.0,81,0.00,,,0.00,Wunderground v.1.15,2013-06-24 04:00:00,
2013-06-24 00:01:00,74.0,67.8,30.04,WSW,250,0.0,0.0,81,0.00,,,0.00,Wunderground v.1.15,2013-06-24 04:01:00,
2013-06-24 00:02:00,73.9,67.7,30.04,WSW,251,0.0,0.0,81,0.00,,,0.00,Wunderground v.1.15,2013-06-24 04:02:00,
2013-06-24 00:08:00,73.9,67.7,30.04,WSW,251,0.0,0.0,81,0.00,,,0.00,Wunderground v.1.15,2013-06-24 04:08:00,
2013-06-24 00:10:00,73.7,67.5,30.04,WSW,253,0.0,0.0,81,0.00,,,0.00,Wunderground v.1.15,2013-06-24 04:10:00,
2013-06-24 00:16:00,73.7,67.5,30.03,WSW,251,0.0,0.0,81,0.00,,,0.00,Wunderground v.1.15,2013-06-24 04:16:00,
2013-06-24 00:22:00,73.5,67.7,30.03,WSW,250,0.0,0.0,82,0.00,,,0.00,Wunderground v.1.15,2013-06-24 04:22:00,
2013-06-24 00:27:00,73.5,67.7,30.03,WSW,250,0.0,0.0,82,0.00,,,0.00,Wunderground v.1.15,2013-06-24 04:27:00,
2013-06-24 00:32:00,73.3,67.5,30.03,WSW,250,0.0,0.0,82,0.00,,,0.00,Wunderground v.1.15,2013-06-24 04:32:00,
2013-06-24 00:37:00,73.3,67.5,30.03,WSW,250,0.0,0.0,82,0.00,,,0.00,Wunderground v.1.15,2013-06-24 04:37:00,
2013-06-24 00:45:00,73.3,67.5,30.03,WSW,248,0.0,0.0,82,0.00,,,0.00,Wunderground v.1.15,2013-06-24 04:45:00,
2013-06-24 00:51:00,73.3,67.5,30.03,North,350,0.0,0.0,82,0.00,,,0.00,Wunderground v.1.15,2013-06-24 04:51:00,
2013-06-24 00:56:00,73.5,67.3,30.03,North,6,0.0,2.0,81,0.00,,,0.00,Wunderground v.1.15,2013-06-24 04:56:00,
2013-06-24 01:02:00,73.7,66.8,30.02,NNE,21,1.0,1.0,79,0.00,,,0.00,Wunderground v.1.15,2013-06-24 05:02:00,
2013-06-24 01:07:00,73.7,66.8,30.02,NNE,21,0.0,1.0,79,0.00,,,0.00,Wunderground v.1.15,2013-06-24 05:07:00,
2013-06-24 01:17:00,73.9,66.2,30.03,NNE,21,0.0,0.0,77,0.00,,,0.00,Wunderground v.1.15,2013-06-24 05:17:00,
2013-06-24 01:26:00,73.7,65.7,30.03,NNE,27,0.0,2.0,76,0.00,,,0.00,Wunderground v.1.15,2013-06-24 05:26:00,
2013-06-24 01:32:00,73.7,65.7,30.02,NNE,20,0.0,0.0,76,0.00,,,0.00,Wunderground v.1.15,2013-06-24 05:32:00,
2013-06-24 01:37:00,73.5,65.5,30.02,NNE,24,0.0,0.0,76,0.00,,,0.00,Wunderground v.1.15,2013-06-24 05:37:00,
2013-06-24 01:45:00,73.3,64.9,30.03,NNE,21,0.0,0.0,75,0.00,,,0.00,Wunderground v.1.15,2013-06-24 05:45:00,
2013-06-24 01:51:00,73.2,64.8,30.03,NNE,23,0.0,0.0,75,0.00,,,0.00,Wunderground v.1.15,2013-06-24 05:51:00,
2013-06-24 01:57:00,73.2,65.2,30.03,NNE,18,0.0,0.0,76,0.00,,,0.00,Wunderground v.1.15,2013-06-24 05:57:00,
2013-06-24 02:02:00,73.2,65.2,30.02,NNE,20,0.0,0.0,76,0.00,,,0.00,Wunderground v.1.15,2013-06-24 06:02:00,
2013-06-24 02:09:00,73.0,65.4,30.02,NNE,20,0.0,0.0,77,0.00,,,0.00,Wunderground v.1.15,2013-06-24 06:09:00,
2013-06-24 02:15:00,73.0,65.4,30.02,NNE,20,0.0,1.0,77,0.00,,,0.00,Wunderground v.1.15,2013-06-24 06:15:00,
2013-06-24 02:22:00,72.8,65.5,30.02,NNE,21,0.0,0.0,78,0.00,,,0.00,Wunderground v.1.15,2013-06-24 06:22:00,
2013-06-24 02:28:00,72.8,65.5,30.02,NNE,21,0.0,0.0,78,0.00,,,0.00,Wunderground v.1.15,2013-06-24 06:28:00,
2013-06-24 02:36:00,72.7,65.4,30.02,NNE,21,0.0,2.0,78,0.00,,,0.00,Wunderground v.1.15,2013-06-24 06:36:00,
2013-06-24 02:41:00,72.5,65.2,30.02,NNE,21,0.0,0.0,78,0.00,,,0.00,Wunderground v.1.15,2013-06-24 06:41:00,
2013-06-24 02:47:00,72.5,65.2,30.03,NNE,24,0.0,0.0,78,0.00,,,0.00,Wunderground v.1.15,2013-06-24 06:47:00,
2013-06-24 02:54:00,72.3,65.1,30.03,NNE,20,0.0,1.0,78,0.00,,,0.00,Wunderground v.1.15,2013-06-24 06:54:00,
2013-06-24 03:01:00,72.1,63.7,30.03,NNE,20,0.0,2.0,75,0.00,,,0.00,Wunderground v.1.15,2013-06-24 07:01:00,
2013-06-24 03:07:00,72.3,62.8,30.03,NNE,20,1.0,2.0,72,0.00,,,0.00,Wunderground v.1.15,2013-06-24 07:07:00,
2013-06-24 03:14:00,72.5,63.7,30.01,NNE,20,0.0,0.0,74,0.00,,,0.01,Wunderground v.1.15,2013-06-24 07:14:00,
2013-06-24 03:20:00,72.5,64.5,30.01,NNE,31,0.0,0.0,76,0.00,,,0.01,Wunderground v.1.15,2013-06-24 07:20:00,
2013-06-24 03:27:00,72.0,64.4,30.01,NNE,23,0.0,0.0,77,0.00,,,0.01,Wunderground v.1.15,2013-06-24 07:27:00,
2013-06-24 03:32:00,71.6,64.0,30.02,NNE,30,0.0,0.0,77,0.00,,,0.01,Wunderground v.1.15,2013-06-24 07:32:00,
2013-06-24 03:37:00,71.5,64.3,30.02,NNE,23,0.0,0.0,78,0.00,,,0.01,Wunderground v.1.15,2013-06-24 07:37:00,
2013-06-24 03:51:00,71.1,63.9,30.03,NE,40,0.0,0.0,78,0.00,,,0.01,Wunderground v.1.15,2013-06-24 07:51:00,
2013-06-24 03:58:00,71.1,64.6,30.03,SW,220,0.0,0.0,80,0.47,,,0.04,Wunderground v.1.15,2013-06-24 07:58:00,
2013-06-24 04:04:00,70.8,65.4,30.02,SW,232,0.0,0.0,83,0.44,,,0.08,Wunderground v.1.15,2013-06-24 08:04:00,
2013-06-24 04:10:00,70.4,65.3,30.02,NE,38,0.0,0.0,84,0.21,,,0.10,Wunderground v.1.15,2013-06-24 08:10:00,
2013-06-24 04:17:00,70.1,65.0,30.03,NE,38,0.0,0.0,84,0.09,,,0.11,Wunderground v.1.15,2013-06-24 08:17:00,
2013-06-24 04:26:00,69.8,65.1,30.03,NNE,31,0.0,0.0,85,0.04,,,0.11,Wunderground v.1.15,2013-06-24 08:26:00,
2013-06-24 04:32:00,69.6,65.2,30.03,NE,35,0.0,0.0,86,0.00,,,0.11,Wunderground v.1.15,2013-06-24 08:32:00,
2013-06-24 04:39:00,69.4,65.0,30.03,NNE,32,0.0,0.0,86,0.00,,,0.11,Wunderground v.1.15,2013-06-24 08:39:00,
2013-06-24 04:46:00,69.1,65.1,30.03,NE,38,0.0,0.0,87,0.00,,,0.11,Wunderground v.1.15,2013-06-24 08:46:00,
2013-06-24 04:57:00,68.8,64.8,30.03,NE,40,0.0,0.0,87,0.00,,,0.11,Wunderground v.1.15,2013-06-24 08:57:00,
2013-06-24 05:05:00,68.6,64.6,30.03,NE,37,0.0,0.0,87,0.00,,,0.12,Wunderground v.1.15,2013-06-24 09:05:00,
2013-06-24 05:10:00,68.4,64.7,30.03,NE,40,0.0,0.0,88,0.00,,,0.12,Wunderground v.1.15,2013-06-24 09:10:00,
2013-06-24 05:16:00,68.3,64.6,30.03,NE,42,0.0,0.0,88,0.00,,,0.12,Wunderground v.1.15,2013-06-24 09:16:00,
2013-06-24 05:22:00,68.3,64.6,30.03,NE,38,0.0,0.0,88,0.00,,,0.12,Wunderground v.1.15,2013-06-24 09:22:00,
2013-06-24 05:28:00,68.1,64.4,30.03,NE,38,0.0,0.0,88,0.00,,,0.12,Wunderground v.1.15,2013-06-24 09:28:00,
2013-06-24 05:36:00,67.9,64.5,30.03,NE,41,0.0,0.0,89,0.00,,,0.12,Wunderground v.1.15,2013-06-24 09:36:00,
2013-06-24 05:42:00,67.9,64.5,30.03,NNE,32,0.0,0.0,89,0.00,,,0.12,Wunderground v.1.15,2013-06-24 09:42:00,
2013-06-24 05:47:00,67.8,64.4,30.03,NE,40,0.0,0.0,89,0.00,,,0.12,Wunderground v.1.15,2013-06-24 09:47:00,
2013-06-24 05:58:00,67.6,64.2,30.03,NE,40,0.0,0.0,89,0.00,,,0.12,Wunderground v.1.15,2013-06-24 09:58:00,
2013-06-24 06:05:00,67.6,64.6,30.04,NE,40,0.0,0.0,90,0.00,,,0.12,Wunderground v.1.15,2013-06-24 10:05:00,
2013-06-24 06:10:00,67.6,64.6,30.04,NE,37,0.0,0.0,90,0.00,,,0.12,Wunderground v.1.15,2013-06-24 10:10:00,
2013-06-24 06:16:00,67.4,64.4,30.04,NE,38,0.0,0.0,90,0.00,,,0.12,Wunderground v.1.15,2013-06-24 10:16:00,
2013-06-24 06:22:00,67.4,64.4,30.04,NNE,31,0.0,0.0,90,0.00,,,0.12,Wunderground v.1.15,2013-06-24 10:22:00,
2013-06-24 06:27:00,67.4,64.4,30.04,NNE,28,0.0,0.0,90,0.00,,,0.12,Wunderground v.1.15,2013-06-24 10:27:00,
2013-06-24 06:32:00,67.4,64.4,30.04,NNE,31,0.0,0.0,90,0.00,,,0.12,Wunderground v.1.15,2013-06-24 10:32:00,
2013-06-24 06:37:00,67.4,64.4,30.04,NNE,30,0.0,0.0,90,0.00,,,0.12,Wunderground v.1.15,2013-06-24 10:37:00,
2013-06-24 06:45:00,67.6,64.6,30.04,NNE,21,0.0,0.0,90,0.00,,,0.12,Wunderground v.1.15,2013-06-24 10:45:00,
2013-06-24 06:50:00,67.6,64.6,30.04,NNE,21,0.0,0.0,90,0.00,,,0.12,Wunderground v.1.15,2013-06-24 10:50:00,
2013-06-24 06:57:00,67.8,64.8,30.04,NNE,21,0.0,0.0,90,0.00,,,0.12,Wunderground v.1.15,2013-06-24 10:57:00,
2013-06-24 07:02:00,67.8,64.8,30.05,NNE,21,0.0,0.0,90,0.00,,,0.12,Wunderground v.1.15,2013-06-24 11:02:00,
2013-06-24 07:08:00,67.9,64.9,30.05,NNE,21,0.0,0.0,90,0.00,,,0.12,Wunderground v.1.15,2013-06-24 11:08:00,
2013-06-24 07:22:00,68.3,65.3,30.05,NNE,21,0.0,0.0,90,0.00,,,0.12,Wunderground v.1.15,2013-06-24 11:22:00,
2013-06-24 07:28:00,68.4,65.4,30.05,NNE,21,0.0,0.0,90,0.00,,,0.12,Wunderground v.1.15,2013-06-24 11:28:00,
2013-06-24 07:34:00,68.6,65.5,30.05,NNE,20,0.0,1.0,90,0.00,,,0.12,Wunderground v.1.15,2013-06-24 11:34:00,
2013-06-24 07:40:00,68.9,65.5,30.05,NNE,20,0.0,0.0,89,0.00,,,0.12,Wunderground v.1.15,2013-06-24 11:40:00,
2013-06-24 07:47:00,69.1,65.4,30.05,NNE,20,0.0,0.0,88,0.00,,,0.12,Wunderground v.1.15,2013-06-24 11:47:00,
2013-06-24 07:54:00,69.3,65.3,30.05,NNE,20,0.0,0.0,87,0.00,,,0.12,Wunderground v.1.15,2013-06-24 11:54:00,
2013-06-24 08:00:00,69.6,65.6,30.06,NNE,20,0.0,0.0,87,0.00,,,0.12,Wunderground v.1.15,2013-06-24 12:00:00,
2013-06-24 08:07:00,69.8,65.4,30.06,NNE,20,0.0,0.0,86,0.00,,,0.12,Wunderground v.1.15,2013-06-24 12:07:00,
2013-06-24 08:16:00,70.4,65.7,30.05,NNE,20,0.0,0.0,85,0.00,,,0.12,Wunderground v.1.15,2013-06-24 12:16:00,
2013-06-24 08:22:00,70.8,65.4,30.05,NNE,20,0.0,0.0,83,0.00,,,0.12,Wunderground v.1.15,2013-06-24 12:22:00,
2013-06-24 08:27:00,71.3,65.5,30.05,NNE,20,0.0,0.0,82,0.00,,,0.12,Wunderground v.1.15,2013-06-24 12:27:00,
2013-06-24 08:37:00,72.3,66.1,30.05,NNE,20,0.0,0.0,81,0.00,,,0.12,Wunderground v.1.15,2013-06-24 12:37:00,
2013-06-24 08:46:00,73.0,66.1,30.06,NNE,20,0.0,1.0,79,0.00,,,0.12,Wunderground v.1.15,2013-06-24 12:46:00,
2013-06-24 08:52:00,73.5,66.6,30.06,WSW,247,0.0,0.0,79,0.00,,,0.12,Wunderground v.1.15,2013-06-24 12:52:00,
2013-06-24 08:57:00,74.0,66.7,30.06,North,350,0.0,0.0,78,0.00,,,0.12,Wunderground v.1.15,2013-06-24 12:57:00,
2013-06-24 09:06:00,74.7,67.0,30.05,SW,227,0.0,0.0,77,0.00,,,0.12,Wunderground v.1.15,2013-06-24 13:06:00,
2013-06-24 09:11:00,75.1,67.4,30.05,NW,304,0.0,0.0,77,0.00,,,0.12,Wunderground v.1.15,2013-06-24 13:11:00,
2013-06-24 09:18:00,75.8,68.1,30.05,NE,47,0.0,0.0,77,0.00,,,0.12,Wunderground v.1.15,2013-06-24 13:18:00,
2013-06-24 09:27:00,76.3,68.2,30.05,West,272,0.0,0.0,76,0.00,,,0.12,Wunderground v.1.15,2013-06-24 13:27:00,
2013-06-24 09:37:00,76.8,67.9,30.06,WNW,288,0.0,0.0,74,0.00,,,0.12,Wunderground v.1.15,2013-06-24 13:37:00,
2013-06-24 09:45:00,77.4,68.5,30.06,NW,326,0.0,0.0,74,0.00,,,0.12,Wunderground v.1.15,2013-06-24 13:45:00,
2013-06-24 09:50:00,77.7,68.7,30.06,NW,318,0.0,0.0,74,0.00,,,0.12,Wunderground v.1.15,2013-06-24 13:50:00,
2013-06-24 09:57:00,78.1,69.1,30.06,NW,318,0.0,0.0,74,0.00,,,0.12,Wunderground v.1.15,2013-06-24 13:57:00,
2013-06-24 10:05:00,78.6,69.2,30.05,NW,305,0.0,0.0,73,0.00,,,0.12,Wunderground v.1.15,2013-06-24 14:05:00,
2013-06-24 10:11:00,79.0,68.8,30.05,NW,312,0.0,0.0,71,0.00,,,0.12,Wunderground v.1.15,2013-06-24 14:11:00,
2013-06-24 10:18:00,79.6,69.4,30.05,NNW,335,0.0,0.0,71,0.00,,,0.12,Wunderground v.1.15,2013-06-24 14:18:00,
2013-06-24 10:25:00,80.1,68.6,30.05,NNW,336,0.0,0.0,68,0.00,,,0.12,Wunderground v.1.15,2013-06-24 14:25:00,
2013-06-24 10:32:00,80.7,70.0,30.05,North,352,0.0,0.0,70,0.00,,,0.12,Wunderground v.1.15,2013-06-24 14:32:00,
2013-06-24 10:37:00,81.2,70.5,30.05,WSW,239,0.0,0.0,70,0.00,,,0.12,Wunderground v.1.15,2013-06-24 14:37:00,
2013-06-24 10:45:00,82.0,70.0,30.05,North,359,0.0,0.0,67,0.00,,,0.12,Wunderground v.1.15,2013-06-24 14:45:00,
2013-06-24 10:50:00,82.4,70.3,30.05,WNW,287,0.0,0.0,67,0.00,,,0.12,Wunderground v.1.15,2013-06-24 14:50:00,
2013-06-24 10:57:00,82.8,70.3,30.05,NNW,347,0.0,0.0,66,0.00,,,0.12,Wunderground v.1.15,2013-06-24 14:57:00,
2013-06-24 11:02:00,83.0,70.0,30.05,NNW,347,0.0,0.0,65,0.00,,,0.12,Wunderground v.1.15,2013-06-24 15:02:00,
2013-06-24 11:07:00,83.0,69.6,30.05,NW,309,0.0,0.0,64,0.00,,,0.12,Wunderground v.1.15,2013-06-24 15:07:00,
2013-06-24 11:15:00,83.6,70.1,30.05,North,0,0.0,0.0,64,0.00,,,0.12,Wunderground v.1.15,2013-06-24 15:15:00,
2013-06-24 11:20:00,84.0,70.0,30.05,North,0,0.0,0.0,63,0.00,,,0.12,Wunderground v.1.15,2013-06-24 15:20:00,
2013-06-24 11:25:00,84.1,68.7,30.05,North,0,0.0,0.0,60,0.00,,,0.12,Wunderground v.1.15,2013-06-24 15:25:00,
2013-06-24 11:31:00,84.5,70.5,30.05,WSW,241,0.0,0.0,63,0.00,,,0.12,Wunderground v.1.15,2013-06-24 15:31:00,
2013-06-24 11:37:00,85.1,69.2,30.05,WNW,288,0.0,0.0,59,0.00,,,0.12,Wunderground v.1.15,2013-06-24 15:37:00,
2013-06-24 11:46:00,85.9,70.9,30.05,NNW,329,0.0,1.0,61,0.00,,,0.12,Wunderground v.1.15,2013-06-24 15:46:00,
2013-06-24 11:52:00,86.1,70.1,30.05,WSW,253,0.0,0.0,59,0.00,,,0.12,Wunderground v.1.15,2013-06-24 15:52:00,
2013-06-24 11:59:00,86.5,68.9,30.04,WSW,254,0.0,0.0,56,0.00,,,0.12,Wunderground v.1.15,2013-06-24 15:59:00,
2013-06-24 12:07:00,87.0,69.9,30.04,North,0,1.0,1.0,57,0.00,,,0.12,Wunderground v.1.15,2013-06-24 16:07:00,
2013-06-24 12:14:00,87.6,70.0,30.03,North,3,0.0,3.0,56,0.00,,,0.12,Wunderground v.1.15,2013-06-24 16:14:00,
2013-06-24 12:20:00,88.0,68.2,30.03,North,4,0.0,0.0,52,0.00,,,0.12,Wunderground v.1.15,2013-06-24 16:20:00,
2013-06-24 12:27:00,88.2,68.9,30.03,NNE,24,0.0,0.0,53,0.00,,,0.12,Wunderground v.1.15,2013-06-24 16:27:00,
2013-06-24 12:35:00,88.2,67.2,30.03,North,0,1.0,5.0,50,0.00,,,0.12,Wunderground v.1.15,2013-06-24 16:35:00,
2013-06-24 12:41:00,87.8,66.8,30.03,North,353,2.0,3.0,50,0.00,,,0.12,Wunderground v.1.15,2013-06-24 16:41:00,
2013-06-24 12:47:00,88.0,67.6,30.02,NNW,344,1.0,5.0,51,0.00,,,0.12,Wunderground v.1.15,2013-06-24 16:47:00,
2013-06-24 12:52:00,88.4,68.0,30.02,NNE,25,0.0,1.0,51,0.00,,,0.12,Wunderground v.1.15,2013-06-24 16:52:00,
2013-06-24 12:58:00,88.8,66.6,30.02,NNE,25,0.0,1.0,48,0.00,,,0.12,Wunderground v.1.15,2013-06-24 16:58:00,
2013-06-24 13:07:00,89.3,66.4,30.02,NNE,25,0.0,0.0,47,0.00,,,0.12,Wunderground v.1.15,2013-06-24 17:07:00,
2013-06-24 13:18:00,89.9,65.7,30.01,North,6,1.0,2.0,45,0.00,,,0.12,Wunderground v.1.15,2013-06-24 17:18:00,
2013-06-24 13:27:00,90.3,66.1,30.01,North,359,1.0,1.0,45,0.00,,,0.12,Wunderground v.1.15,2013-06-24 17:27:00,
2013-06-24 13:32:00,90.5,63.6,30.00,North,356,1.0,3.0,41,0.00,,,0.12,Wunderground v.1.15,2013-06-24 17:32:00,
2013-06-24 13:37:00,90.7,65.1,30.00,North,0,0.0,3.0,43,0.00,,,0.12,Wunderground v.1.15,2013-06-24 17:37:00,
2013-06-24 13:42:00,90.7,66.4,30.00,NNW,347,0.0,0.0,45,0.00,,,0.12,Wunderground v.1.15,2013-06-24 17:42:00,
2013-06-24 13:47:00,91.2,64.2,29.99,North,349,0.0,0.0,41,0.00,,,0.12,Wunderground v.1.15,2013-06-24 17:47:00,
2013-06-24 13:55:00,92.1,62.1,29.99,North,0,0.0,0.0,37,0.00,,,0.12,Wunderground v.1.15,2013-06-24 17:55:00,
2013-06-24 14:01:00,92.1,64.3,29.99,North,0,1.0,2.0,40,0.00,,,0.12,Wunderground v.1.15,2013-06-24 18:01:00,
2013-06-24 14:06:00,91.6,65.9,29.99,SW,233,1.0,2.0,43,0.00,,,0.12,Wunderground v.1.15,2013-06-24 18:06:00,
2013-06-24 14:12:00,92.1,65.0,29.99,North,4,1.0,1.0,41,0.00,,,0.12,Wunderground v.1.15,2013-06-24 18:12:00,
2013-06-24 14:17:00,92.5,63.9,30.00,NE,34,0.0,2.0,39,0.00,,,0.12,Wunderground v.1.15,2013-06-24 18:17:00,
2013-06-24 14:26:00,92.3,63.0,30.00,North,0,1.0,1.0,38,0.00,,,0.12,Wunderground v.1.15,2013-06-24 18:26:00,
2013-06-24 14:38:00,91.8,63.3,29.99,North,0,0.0,0.0,39,0.00,,,0.12,Wunderground v.1.15,2013-06-24 18:38:00,
2013-06-24 14:47:00,91.8,65.4,29.98,NNE,31,0.0,0.0,42,0.00,,,0.12,Wunderground v.1.15,2013-06-24 18:47:00,
2013-06-24 14:52:00,91.8,65.4,29.98,NNE,31,0.0,0.0,42,0.00,,,0.12,Wunderground v.1.15,2013-06-24 18:52:00,
2013-06-24 14:58:00,92.5,64.7,29.98,NNE,31,0.0,0.0,40,0.00,,,0.12,Wunderground v.1.15,2013-06-24 18:58:00,
2013-06-24 15:05:00,92.7,63.4,29.97,SSE,162,0.0,0.0,38,0.00,,,0.12,Wunderground v.1.15,2013-06-24 19:05:00,
2013-06-24 15:11:00,92.5,63.2,29.97,SSE,162,0.0,0.0,38,0.00,,,0.12,Wunderground v.1.15,2013-06-24 19:11:00,
2013-06-24 15:18:00,91.4,65.8,29.96,West,263,0.0,0.0,43,0.00,,,0.12,Wunderground v.1.15,2013-06-24 19:18:00,
2013-06-24 15:25:00,87.6,64.3,29.96,NE,56,1.0,1.0,46,0.00,,,0.12,Wunderground v.1.15,2013-06-24 19:25:00,
2013-06-24 15:31:00,84.7,64.0,30.02,North,4,2.0,2.0,50,0.00,,,0.12,Wunderground v.1.15,2013-06-24 19:31:00,
2013-06-24 15:37:00,79.4,63.8,30.02,North,357,5.0,10.0,59,0.00,,,0.12,Wunderground v.1.15,2013-06-24 19:37:00,
2013-06-24 15:45:00,72.5,65.2,30.06,NW,323,7.0,9.0,78,0.57,,,0.19,Wunderground v.1.15,2013-06-24 19:45:00,
2013-06-24 15:51:00,70.6,64.8,30.06,WNW,299,4.0,5.0,82,0.49,,,0.23,Wunderground v.1.15,2013-06-24 19:51:00,
2013-06-24 15:56:00,69.4,64.0,30.06,NE,38,2.0,5.0,83,0.31,,,0.26,Wunderground v.1.15,2013-06-24 19:56:00,
2013-06-24 16:02:00,68.8,64.1,30.03,NNW,328,1.0,1.0,85,0.20,,,0.29,Wunderground v.1.15,2013-06-24 20:02:00,
2013-06-24 16:08:00,68.6,64.6,30.03,WNW,298,0.0,1.0,87,0.13,,,0.30,Wunderground v.1.15,2013-06-24 20:08:00,
2013-06-24 16:16:00,68.6,64.6,30.01,WSW,247,0.0,0.0,87,0.05,,,0.30,Wunderground v.1.15,2013-06-24 20:16:00,
2013-06-24 16:29:00,68.9,65.2,30.01,WSW,248,0.0,0.0,88,0.00,,,0.30,Wunderground v.1.15,2013-06-24 20:29:00,
2013-06-24 16:41:00,69.6,66.5,30.01,WSW,251,0.0,0.0,90,0.00,,,0.31,Wunderground v.1.15,2013-06-24 20:41:00,
2013-06-24 16:48:00,70.4,67.3,30.00,WSW,247,0.0,0.0,90,0.00,,,0.31,Wunderground v.1.15,2013-06-24 20:48:00,
2013-06-24 16:54:00,70.8,67.7,30.00,WSW,243,0.0,0.0,90,0.00,,,0.31,Wunderground v.1.15,2013-06-24 20:54:00,
2013-06-24 17:01:00,71.6,68.8,29.98,West,271,0.0,0.0,91,0.00,,,0.31,Wunderground v.1.15,2013-06-24 21:01:00,
2013-06-24 17:08:00,72.3,69.2,29.98,West,277,0.0,0.0,90,0.00,,,0.31,Wunderground v.1.15,2013-06-24 21:08:00,
2013-06-24 17:15:00,72.8,69.7,29.98,West,277,0.0,0.0,90,0.00,,,0.31,Wunderground v.1.15,2013-06-24 21:15:00,
2013-06-24 17:22:00,73.2,69.8,29.98,North,7,0.0,2.0,89,0.00,,,0.31,Wunderground v.1.15,2013-06-24 21:22:00,
2013-06-24 17:27:00,73.5,69.7,29.98,WNW,294,0.0,2.0,88,0.00,,,0.31,Wunderground v.1.15,2013-06-24 21:27:00,
2013-06-24 17:35:00,74.2,69.7,29.98,WNW,292,0.0,0.0,86,0.00,,,0.31,Wunderground v.1.15,2013-06-24 21:35:00,
2013-06-24 17:41:00,74.6,69.4,29.98,WNW,296,0.0,0.0,84,0.00,,,0.31,Wunderground v.1.15,2013-06-24 21:41:00,
2013-06-24 17:48:00,75.3,69.4,29.98,WNW,296,0.0,0.0,82,0.00,,,0.31,Wunderground v.1.15,2013-06-24 21:48:00,
2013-06-24 17:55:00,76.0,69.0,29.98,North,357,1.0,1.0,79,0.00,,,0.31,Wunderground v.1.15,2013-06-24 21:55:00,
2013-06-24 18:01:00,76.5,69.1,29.98,North,357,0.0,2.0,78,0.00,,,0.31,Wunderground v.1.15,2013-06-24 22:01:00,
2013-06-24 18:07:00,76.8,68.7,29.98,North,357,0.0,2.0,76,0.00,,,0.31,Wunderground v.1.15,2013-06-24 22:07:00,
2013-06-24 18:16:00,77.2,68.3,29.97,North,359,0.0,0.0,74,0.00,,,0.31,Wunderground v.1.15,2013-06-24 22:16:00,
2013-06-24 18:24:00,77.6,67.9,29.97,North,357,0.0,1.0,72,0.00,,,0.31,Wunderground v.1.15,2013-06-24 22:24:00,
2013-06-24 18:29:00,77.7,68.4,29.97,North,357,0.0,1.0,73,0.00,,,0.31,Wunderground v.1.15,2013-06-24 22:29:00,
2013-06-24 18:37:00,77.9,68.1,29.97,North,357,0.0,0.0,72,0.00,,,0.31,Wunderground v.1.15,2013-06-24 22:37:00,
2013-06-24 18:46:00,78.1,69.1,29.97,North,359,0.0,0.0,74,0.00,,,0.31,Wunderground v.1.15,2013-06-24 22:46:00,
2013-06-24 18:51:00,78.3,69.3,29.97,North,359,0.0,1.0,74,0.00,,,0.31,Wunderground v.1.15,2013-06-24 22:51:00,
2013-06-24 19:01:00,78.5,67.9,29.97,North,359,0.0,0.0,70,0.00,,,0.31,Wunderground v.1.15,2013-06-24 23:01:00,
2013-06-24 19:07:00,78.5,67.5,29.97,North,357,0.0,0.0,69,0.00,,,0.31,Wunderground v.1.15,2013-06-24 23:07:00,
2013-06-24 19:12:00,78.5,67.5,29.97,North,359,0.0,1.0,69,0.00,,,0.31,Wunderground v.1.15,2013-06-24 23:12:00,
2013-06-24 19:18:00,78.5,67.5,29.96,North,359,1.0,2.0,69,0.00,,,0.31,Wunderground v.1.15,2013-06-24 23:18:00,
2013-06-24 19:27:00,78.5,68.3,29.96,North,359,0.0,0.0,71,0.00,,,0.31,Wunderground v.1.15,2013-06-24 23:27:00,
2013-06-24 19:36:00,78.5,68.7,29.96,North,359,0.0,0.0,72,0.00,,,0.31,Wunderground v.1.15,2013-06-24 23:36:00,
2013-06-24 19:42:00,78.5,68.7,29.96,North,359,0.0,0.0,72,0.00,,,0.31,Wunderground v.1.15,2013-06-24 23:42:00,
2013-06-24 19:48:00,78.3,68.1,29.96,North,359,0.0,0.0,71,0.00,,,0.31,Wunderground v.1.15,2013-06-24 23:48:00,
2013-06-24 19:56:00,78.1,68.3,29.96,North,359,0.0,0.0,72,0.00,,,0.31,Wunderground v.1.15,2013-06-24 23:56:00,
2013-06-24 20:06:00,77.7,68.4,29.96,North,354,0.0,0.0,73,0.00,,,0.31,Wunderground v.1.15,2013-06-25 00:06:00,
2013-06-24 20:12:00,77.6,68.7,29.96,North,357,0.0,0.0,74,0.00,,,0.31,Wunderground v.1.15,2013-06-25 00:12:00,
2013-06-24 20:17:00,77.4,68.5,29.96,North,357,0.0,0.0,74,0.00,,,0.31,Wunderground v.1.15,2013-06-25 00:17:00,
2013-06-24 20:22:00,77.2,68.7,29.96,North,357,0.0,0.0,75,0.00,,,0.31,Wunderground v.1.15,2013-06-25 00:22:00,
2013-06-24 20:28:00,76.8,68.3,29.96,North,356,0.0,0.0,75,0.00,,,0.31,Wunderground v.1.15,2013-06-25 00:28:00,
2013-06-24 20:36:00,76.5,68.0,29.95,North,357,0.0,0.0,75,0.00,,,0.31,Wunderground v.1.15,2013-06-25 00:36:00,
2013-06-24 20:50:00,75.8,68.1,29.95,North,354,0.0,0.0,77,0.00,,,0.31,Wunderground v.1.15,2013-06-25 00:50:00,
2013-06-24 20:56:00,75.4,68.1,29.95,North,356,0.0,0.0,78,0.00,,,0.31,Wunderground v.1.15,2013-06-25 00:56:00,
2013-06-24 21:01:00,75.3,68.0,29.95,North,357,0.0,0.0,78,0.00,,,0.31,Wunderground v.1.15,2013-06-25 01:01:00,
2013-06-24 21:06:00,75.3,68.3,29.95,North,356,0.0,0.0,79,0.00,,,0.31,Wunderground v.1.15,2013-06-25 01:06:00,
2013-06-24 21:16:00,74.7,68.1,29.95,North,356,0.0,0.0,80,0.00,,,0.31,Wunderground v.1.15,2013-06-25 01:16:00,
2013-06-24 21:22:00,74.6,68.0,29.95,NNW,344,0.0,0.0,80,0.00,,,0.31,Wunderground v.1.15,2013-06-25 01:22:00,
2013-06-24 21:27:00,74.6,68.4,29.95,NNW,347,0.0,0.0,81,0.00,,,0.31,Wunderground v.1.15,2013-06-25 01:27:00,
2013-06-24 21:39:00,74.4,68.9,29.96,NNW,346,0.0,0.0,83,0.00,,,0.31,Wunderground v.1.15,2013-06-25 01:39:00,
2013-06-24 21:48:00,74.2,68.7,29.96,North,357,0.0,0.0,83,0.00,,,0.31,Wunderground v.1.15,2013-06-25 01:48:00,
2013-06-24 21:55:00,74.0,68.5,29.96,North,357,0.0,0.0,83,0.00,,,0.31,Wunderground v.1.15,2013-06-25 01:55:00,
2013-06-24 22:01:00,74.0,68.9,29.96,North,354,0.0,0.0,84,0.00,,,0.31,Wunderground v.1.15,2013-06-25 02:01:00,
2013-06-24 22:07:00,73.9,68.8,29.96,North,357,0.0,0.0,84,0.00,,,0.31,Wunderground v.1.15,2013-06-25 02:07:00,
2013-06-24 22:12:00,73.7,68.6,29.96,North,352,0.0,0.0,84,0.00,,,0.31,Wunderground v.1.15,2013-06-25 02:12:00,
2013-06-24 22:17:00,73.5,68.4,29.96,North,357,0.0,0.0,84,0.00,,,0.31,Wunderground v.1.15,2013-06-25 02:17:00,
2013-06-24 22:25:00,73.3,68.5,29.96,North,357,0.0,0.0,85,0.00,,,0.31,Wunderground v.1.15,2013-06-25 02:25:00,
2013-06-24 22:30:00,73.2,68.4,29.96,North,356,0.0,0.0,85,0.00,,,0.31,Wunderground v.1.15,2013-06-25 02:30:00,
2013-06-24 22:38:00,73.0,68.2,29.96,North,357,0.0,0.0,85,0.00,,,0.31,Wunderground v.1.15,2013-06-25 02:38:00,
2013-06-24 22:46:00,73.0,68.6,29.97,North,357,0.0,0.0,86,0.00,,,0.31,Wunderground v.1.15,2013-06-25 02:46:00,
2013-06-24 22:52:00,73.0,68.9,29.97,North,357,0.0,0.0,87,0.00,,,0.31,Wunderground v.1.15,2013-06-25 02:52:00,
2013-06-24 22:58:00,73.0,68.9,29.97,North,357,0.0,0.0,87,0.00,,,0.31,Wunderground v.1.15,2013-06-25 02:58:00,
2013-06-24 23:07:00,72.8,68.7,29.97,North,357,0.0,0.0,87,0.00,,,0.31,Wunderground v.1.15,2013-06-25 03:07:00,
2013-06-24 23:18:00,72.7,68.6,29.96,North,356,0.0,0.0,87,0.00,,,0.31,Wunderground v.1.15,2013-06-25 03:18:00,
2013-06-24 23:27:00,72.5,68.4,29.96,North,354,0.0,0.0,87,0.00,,,0.31,Wunderground v.1.15,2013-06-25 03:27:00,
2013-06-24 23:32:00,72.5,68.4,29.96,NNW,347,0.0,0.0,87,0.00,,,0.31,Wunderground v.1.15,2013-06-25 03:32:00,
2013-06-24 23:40:00,72.3,68.2,29.96,North,353,0.0,0.0,87,0.00,,,0.31,Wunderground v.1.15,2013-06-25 03:40:00,
2013-06-24 23:48:00,72.3,68.2,29.96,North,352,0.0,0.0,87,0.00,,,0.31,Wunderground v.1.15,2013-06-25 03:48:00,
2013-06-24 23:58:00,72.1,68.3,29.96,North,349,0.0,0.0,88,0.00,,,0.31,Wunderground v.1.15,2013-06-25 03:58:00,